sensor_id;sensor_type;location;lat;lon;timestamp;P1;durP1;ratioP1;P2;durP2;ratioP2
17235;SDS011;8734;59.272;17.780;2022-12-07T00:01:42;14.43;;;3.47;;
17235;SDS011;8734;59.272;17.780;2022-12-07T00:04:14;8.43;;;3.20;;
17235;SDS011;8734;59.272;17.780;2022-12-07T00:06:50;13.10;;;3.00;;
17235;SDS011;8734;59.272;17.780;2022-12-07T00:09:22;8.60;;;3.00;;
17235;SDS011;8734;59.272;17.780;2022-12-07T00:11:51;12.80;;;3.50;;
17235;SDS011;8734;59.272;17.780;2022-12-07T00:14:19;5.43;;;2.70;;
17235;SDS011;8734;59.272;17.780;2022-12-07T00:16:48;13.20;;;3.17;;
17235;SDS011;8734;59.272;17.780;2022-12-07T00:19:18;4.67;;;2.63;;
17235;SDS011;8734;59.272;17.780;2022-12-07T00:21:47;9.67;;;2.43;;
17235;SDS011;8734;59.272;17.780;2022-12-07T00:24:15;13.47;;;2.97;;
17235;SDS011;8734;59.272;17.780;2022-12-07T00:26:44;8.43;;;2.90;;
17235;SDS011;8734;59.272;17.780;2022-12-07T00:29:13;4.93;;;2.63;;
17235;SDS011;8734;59.272;17.780;2022-12-07T00:31:43;12.27;;;3.10;;
17235;SDS011;8734;59.272;17.780;2022-12-07T00:34:12;19.77;;;3.27;;
17235;SDS011;8734;59.272;17.780;2022-12-07T00:36:44;7.87;;;2.63;;
17235;SDS011;8734;59.272;17.780;2022-12-07T00:39:12;12.13;;;2.90;;
17235;SDS011;8734;59.272;17.780;2022-12-07T00:41:40;13.17;;;2.70;;
17235;SDS011;8734;59.272;17.780;2022-12-07T00:44:09;7.33;;;3.27;;
17235;SDS011;8734;59.272;17.780;2022-12-07T00:46:37;11.47;;;2.37;;
17235;SDS011;8734;59.272;17.780;2022-12-07T00:49:07;5.07;;;2.67;;
17235;SDS011;8734;59.272;17.780;2022-12-07T00:51:35;9.50;;;3.03;;
17235;SDS011;8734;59.272;17.780;2022-12-07T00:54:05;9.27;;;2.70;;
17235;SDS011;8734;59.272;17.780;2022-12-07T00:56:33;7.70;;;2.67;;
17235;SDS011;8734;59.272;17.780;2022-12-07T00:59:02;8.07;;;3.33;;
17235;SDS011;8734;59.272;17.780;2022-12-07T01:01:32;4.90;;;2.23;;
17235;SDS011;8734;59.272;17.780;2022-12-07T01:04:02;10.27;;;2.57;;
17235;SDS011;8734;59.272;17.780;2022-12-07T01:06:31;6.70;;;2.73;;
17235;SDS011;8734;59.272;17.780;2022-12-07T01:09:00;8.53;;;2.73;;
17235;SDS011;8734;59.272;17.780;2022-12-07T01:11:31;5.87;;;2.90;;
17235;SDS011;8734;59.272;17.780;2022-12-07T01:14:00;3.80;;;2.07;;
17235;SDS011;8734;59.272;17.780;2022-12-07T01:16:30;9.00;;;2.90;;
17235;SDS011;8734;59.272;17.780;2022-12-07T01:19:00;11.90;;;3.23;;
17235;SDS011;8734;59.272;17.780;2022-12-07T01:21:31;7.33;;;2.87;;
17235;SDS011;8734;59.272;17.780;2022-12-07T01:24:04;11.87;;;2.40;;
17235;SDS011;8734;59.272;17.780;2022-12-07T01:26:35;9.73;;;2.87;;
17235;SDS011;8734;59.272;17.780;2022-12-07T01:29:03;6.97;;;2.80;;
17235;SDS011;8734;59.272;17.780;2022-12-07T01:31:31;12.00;;;2.07;;
17235;SDS011;8734;59.272;17.780;2022-12-07T01:34:00;14.93;;;2.57;;
17235;SDS011;8734;59.272;17.780;2022-12-07T01:36:31;4.47;;;2.60;;
17235;SDS011;8734;59.272;17.780;2022-12-07T01:39:03;5.03;;;2.77;;
17235;SDS011;8734;59.272;17.780;2022-12-07T01:41:33;10.20;;;2.93;;
17235;SDS011;8734;59.272;17.780;2022-12-07T01:44:16;8.00;;;2.67;;
17235;SDS011;8734;59.272;17.780;2022-12-07T01:46:49;6.83;;;2.43;;
17235;SDS011;8734;59.272;17.780;2022-12-07T01:49:21;4.67;;;1.97;;
17235;SDS011;8734;59.272;17.780;2022-12-07T01:51:57;9.70;;;2.63;;
17235;SDS011;8734;59.272;17.780;2022-12-07T01:54:30;11.40;;;2.93;;
17235;SDS011;8734;59.272;17.780;2022-12-07T01:57:00;7.07;;;2.97;;
17235;SDS011;8734;59.272;17.780;2022-12-07T01:59:31;4.90;;;2.90;;
17235;SDS011;8734;59.272;17.780;2022-12-07T02:01:59;5.73;;;2.50;;
17235;SDS011;8734;59.272;17.780;2022-12-07T02:04:31;5.53;;;2.50;;
17235;SDS011;8734;59.272;17.780;2022-12-07T02:07:00;6.83;;;2.67;;
17235;SDS011;8734;59.272;17.780;2022-12-07T02:09:29;4.77;;;2.63;;
17235;SDS011;8734;59.272;17.780;2022-12-07T02:11:58;4.93;;;2.57;;
17235;SDS011;8734;59.272;17.780;2022-12-07T02:14:28;6.70;;;2.60;;
17235;SDS011;8734;59.272;17.780;2022-12-07T02:17:01;5.67;;;2.53;;
17235;SDS011;8734;59.272;17.780;2022-12-07T02:19:45;8.83;;;2.37;;
17235;SDS011;8734;59.272;17.780;2022-12-07T02:22:42;8.73;;;2.50;;
17235;SDS011;8734;59.272;17.780;2022-12-07T02:25:55;13.17;;;2.67;;
17235;SDS011;8734;59.272;17.780;2022-12-07T02:28:55;4.70;;;2.27;;
17235;SDS011;8734;59.272;17.780;2022-12-07T02:31:40;7.37;;;2.40;;
17235;SDS011;8734;59.272;17.780;2022-12-07T02:34:12;7.30;;;2.67;;
17235;SDS011;8734;59.272;17.780;2022-12-07T02:36:51;6.40;;;2.50;;
17235;SDS011;8734;59.272;17.780;2022-12-07T02:39:25;5.00;;;2.80;;
17235;SDS011;8734;59.272;17.780;2022-12-07T02:42:00;3.40;;;2.03;;
17235;SDS011;8734;59.272;17.780;2022-12-07T02:44:36;10.87;;;2.90;;
17235;SDS011;8734;59.272;17.780;2022-12-07T02:47:10;5.03;;;2.17;;
17235;SDS011;8734;59.272;17.780;2022-12-07T02:49:41;4.23;;;2.13;;
17235;SDS011;8734;59.272;17.780;2022-12-07T02:52:12;6.60;;;2.30;;
17235;SDS011;8734;59.272;17.780;2022-12-07T02:54:40;6.10;;;3.07;;
17235;SDS011;8734;59.272;17.780;2022-12-07T02:57:14;5.73;;;2.63;;
17235;SDS011;8734;59.272;17.780;2022-12-07T03:00:01;5.17;;;2.67;;
17235;SDS011;8734;59.272;17.780;2022-12-07T03:02:35;10.40;;;2.70;;
17235;SDS011;8734;59.272;17.780;2022-12-07T03:05:13;3.63;;;2.13;;
17235;SDS011;8734;59.272;17.780;2022-12-07T03:07:54;4.63;;;2.13;;
17235;SDS011;8734;59.272;17.780;2022-12-07T03:10:33;5.23;;;2.37;;
17235;SDS011;8734;59.272;17.780;2022-12-07T03:13:09;5.20;;;2.27;;
17235;SDS011;8734;59.272;17.780;2022-12-07T03:15:45;6.50;;;2.40;;
17235;SDS011;8734;59.272;17.780;2022-12-07T03:18:17;3.47;;;1.80;;
17235;SDS011;8734;59.272;17.780;2022-12-07T03:20:48;4.23;;;1.80;;
17235;SDS011;8734;59.272;17.780;2022-12-07T03:23:19;8.60;;;2.57;;
17235;SDS011;8734;59.272;17.780;2022-12-07T03:25:52;5.23;;;2.57;;
17235;SDS011;8734;59.272;17.780;2022-12-07T03:28:26;4.97;;;2.43;;
17235;SDS011;8734;59.272;17.780;2022-12-07T03:31:03;3.63;;;1.80;;
17235;SDS011;8734;59.272;17.780;2022-12-07T03:33:39;7.23;;;2.67;;
17235;SDS011;8734;59.272;17.780;2022-12-07T03:36:14;5.77;;;2.30;;
17235;SDS011;8734;59.272;17.780;2022-12-07T03:38:49;5.93;;;2.83;;
17235;SDS011;8734;59.272;17.780;2022-12-07T03:41:23;12.97;;;2.40;;
17235;SDS011;8734;59.272;17.780;2022-12-07T03:43:54;6.40;;;2.37;;
17235;SDS011;8734;59.272;17.780;2022-12-07T03:46:27;8.70;;;2.57;;
17235;SDS011;8734;59.272;17.780;2022-12-07T03:49:04;5.07;;;2.10;;
17235;SDS011;8734;59.272;17.780;2022-12-07T03:51:39;4.47;;;2.27;;
17235;SDS011;8734;59.272;17.780;2022-12-07T03:54:13;5.83;;;2.40;;
17235;SDS011;8734;59.272;17.780;2022-12-07T03:56:46;17.37;;;2.83;;
17235;SDS011;8734;59.272;17.780;2022-12-07T03:59:15;5.00;;;2.10;;
17235;SDS011;8734;59.272;17.780;2022-12-07T04:01:47;4.57;;;2.53;;
17235;SDS011;8734;59.272;17.780;2022-12-07T04:04:20;5.67;;;2.37;;
17235;SDS011;8734;59.272;17.780;2022-12-07T04:06:49;6.87;;;2.27;;
17235;SDS011;8734;59.272;17.780;2022-12-07T04:09:17;8.77;;;1.90;;
17235;SDS011;8734;59.272;17.780;2022-12-07T04:11:46;8.73;;;2.60;;
17235;SDS011;8734;59.272;17.780;2022-12-07T04:14:14;5.23;;;2.23;;
17235;SDS011;8734;59.272;17.780;2022-12-07T04:16:47;11.03;;;2.27;;
17235;SDS011;8734;59.272;17.780;2022-12-07T04:19:16;8.23;;;2.27;;
17235;SDS011;8734;59.272;17.780;2022-12-07T04:21:46;9.87;;;2.40;;
17235;SDS011;8734;59.272;17.780;2022-12-07T04:24:14;6.60;;;2.60;;
17235;SDS011;8734;59.272;17.780;2022-12-07T04:26:43;8.53;;;2.87;;
17235;SDS011;8734;59.272;17.780;2022-12-07T04:29:12;8.17;;;2.97;;
17235;SDS011;8734;59.272;17.780;2022-12-07T04:31:41;16.20;;;3.33;;
17235;SDS011;8734;59.272;17.780;2022-12-07T04:34:12;8.70;;;2.97;;
17235;SDS011;8734;59.272;17.780;2022-12-07T04:36:41;14.40;;;2.70;;
17235;SDS011;8734;59.272;17.780;2022-12-07T04:39:13;9.63;;;2.83;;
17235;SDS011;8734;59.272;17.780;2022-12-07T04:41:46;13.07;;;2.67;;
17235;SDS011;8734;59.272;17.780;2022-12-07T04:44:15;11.43;;;3.17;;
17235;SDS011;8734;59.272;17.780;2022-12-07T04:46:44;8.17;;;2.37;;
17235;SDS011;8734;59.272;17.780;2022-12-07T04:49:15;7.97;;;3.17;;
17235;SDS011;8734;59.272;17.780;2022-12-07T04:51:44;14.27;;;2.67;;
17235;SDS011;8734;59.272;17.780;2022-12-07T04:54:14;11.93;;;2.53;;
17235;SDS011;8734;59.272;17.780;2022-12-07T04:56:43;9.33;;;3.10;;
17235;SDS011;8734;59.272;17.780;2022-12-07T04:59:12;11.73;;;3.40;;
17235;SDS011;8734;59.272;17.780;2022-12-07T05:01:41;4.03;;;2.20;;
17235;SDS011;8734;59.272;17.780;2022-12-07T05:04:10;6.73;;;2.43;;
17235;SDS011;8734;59.272;17.780;2022-12-07T05:06:40;11.07;;;2.73;;
17235;SDS011;8734;59.272;17.780;2022-12-07T05:09:08;9.67;;;2.77;;
17235;SDS011;8734;59.272;17.780;2022-12-07T05:11:36;5.73;;;2.87;;
17235;SDS011;8734;59.272;17.780;2022-12-07T05:14:09;6.00;;;2.73;;
17235;SDS011;8734;59.272;17.780;2022-12-07T05:16:39;8.97;;;2.97;;
17235;SDS011;8734;59.272;17.780;2022-12-07T05:19:09;6.57;;;3.13;;
17235;SDS011;8734;59.272;17.780;2022-12-07T05:21:37;12.63;;;3.23;;
17235;SDS011;8734;59.272;17.780;2022-12-07T05:24:07;13.83;;;3.63;;
17235;SDS011;8734;59.272;17.780;2022-12-07T05:26:39;10.40;;;3.50;;
17235;SDS011;8734;59.272;17.780;2022-12-07T05:29:07;16.43;;;4.97;;
17235;SDS011;8734;59.272;17.780;2022-12-07T05:31:40;11.57;;;3.50;;
17235;SDS011;8734;59.272;17.780;2022-12-07T05:34:08;11.10;;;3.80;;
17235;SDS011;8734;59.272;17.780;2022-12-07T05:36:36;13.13;;;4.10;;
17235;SDS011;8734;59.272;17.780;2022-12-07T05:39:06;15.23;;;4.20;;
17235;SDS011;8734;59.272;17.780;2022-12-07T05:41:35;18.67;;;3.50;;
17235;SDS011;8734;59.272;17.780;2022-12-07T05:44:35;13.83;;;3.73;;
17235;SDS011;8734;59.272;17.780;2022-12-07T05:47:03;7.63;;;3.23;;
17235;SDS011;8734;59.272;17.780;2022-12-07T05:49:31;7.27;;;3.23;;
17235;SDS011;8734;59.272;17.780;2022-12-07T05:52:00;15.60;;;3.37;;
17235;SDS011;8734;59.272;17.780;2022-12-07T05:54:30;11.77;;;3.70;;
17235;SDS011;8734;59.272;17.780;2022-12-07T05:56:58;6.03;;;2.67;;
17235;SDS011;8734;59.272;17.780;2022-12-07T05:59:26;5.97;;;2.50;;
17235;SDS011;8734;59.272;17.780;2022-12-07T06:01:55;5.90;;;2.53;;
17235;SDS011;8734;59.272;17.780;2022-12-07T06:04:25;14.40;;;3.13;;
17235;SDS011;8734;59.272;17.780;2022-12-07T06:06:55;13.47;;;3.00;;
17235;SDS011;8734;59.272;17.780;2022-12-07T06:09:24;15.67;;;3.43;;
17235;SDS011;8734;59.272;17.780;2022-12-07T06:11:55;14.53;;;3.37;;
17235;SDS011;8734;59.272;17.780;2022-12-07T06:14:42;4.63;;;2.60;;
17235;SDS011;8734;59.272;17.780;2022-12-07T06:17:10;13.07;;;2.90;;
17235;SDS011;8734;59.272;17.780;2022-12-07T06:19:39;8.97;;;2.40;;
17235;SDS011;8734;59.272;17.780;2022-12-07T06:22:08;16.20;;;2.87;;
17235;SDS011;8734;59.272;17.780;2022-12-07T06:24:38;6.50;;;2.83;;
17235;SDS011;8734;59.272;17.780;2022-12-07T06:27:08;7.70;;;2.87;;
17235;SDS011;8734;59.272;17.780;2022-12-07T06:29:37;6.87;;;2.90;;
17235;SDS011;8734;59.272;17.780;2022-12-07T06:32:05;6.17;;;2.77;;
17235;SDS011;8734;59.272;17.780;2022-12-07T06:34:34;8.87;;;2.97;;
17235;SDS011;8734;59.272;17.780;2022-12-07T06:37:03;8.17;;;3.10;;
17235;SDS011;8734;59.272;17.780;2022-12-07T06:39:31;11.20;;;2.73;;
17235;SDS011;8734;59.272;17.780;2022-12-07T06:42:00;8.27;;;3.57;;
17235;SDS011;8734;59.272;17.780;2022-12-07T06:44:29;5.53;;;2.60;;
17235;SDS011;8734;59.272;17.780;2022-12-07T06:46:58;9.17;;;3.07;;
17235;SDS011;8734;59.272;17.780;2022-12-07T06:49:46;7.77;;;3.40;;
17235;SDS011;8734;59.272;17.780;2022-12-07T06:52:15;12.07;;;3.30;;
17235;SDS011;8734;59.272;17.780;2022-12-07T06:54:43;8.80;;;2.77;;
17235;SDS011;8734;59.272;17.780;2022-12-07T06:57:11;9.33;;;3.13;;
17235;SDS011;8734;59.272;17.780;2022-12-07T06:59:41;8.57;;;2.77;;
17235;SDS011;8734;59.272;17.780;2022-12-07T07:02:10;12.80;;;3.30;;
17235;SDS011;8734;59.272;17.780;2022-12-07T07:04:38;20.30;;;2.53;;
17235;SDS011;8734;59.272;17.780;2022-12-07T07:07:08;6.97;;;2.50;;
17235;SDS011;8734;59.272;17.780;2022-12-07T07:09:36;8.00;;;2.70;;
17235;SDS011;8734;59.272;17.780;2022-12-07T07:12:04;8.90;;;2.67;;
17235;SDS011;8734;59.272;17.780;2022-12-07T07:14:33;19.00;;;3.13;;
17235;SDS011;8734;59.272;17.780;2022-12-07T07:17:02;14.70;;;3.23;;
17235;SDS011;8734;59.272;17.780;2022-12-07T07:19:30;14.17;;;3.07;;
17235;SDS011;8734;59.272;17.780;2022-12-07T07:21:59;12.97;;;2.57;;
17235;SDS011;8734;59.272;17.780;2022-12-07T07:24:27;7.73;;;2.73;;
17235;SDS011;8734;59.272;17.780;2022-12-07T07:26:56;10.67;;;3.30;;
17235;SDS011;8734;59.272;17.780;2022-12-07T07:29:25;6.27;;;2.97;;
17235;SDS011;8734;59.272;17.780;2022-12-07T07:31:53;8.57;;;2.90;;
17235;SDS011;8734;59.272;17.780;2022-12-07T07:34:30;20.60;;;2.63;;
17235;SDS011;8734;59.272;17.780;2022-12-07T07:36:58;10.93;;;2.97;;
17235;SDS011;8734;59.272;17.780;2022-12-07T07:39:26;8.87;;;2.23;;
17235;SDS011;8734;59.272;17.780;2022-12-07T07:41:55;8.40;;;2.93;;
17235;SDS011;8734;59.272;17.780;2022-12-07T07:44:23;8.77;;;2.40;;
17235;SDS011;8734;59.272;17.780;2022-12-07T07:47:00;5.50;;;2.60;;
17235;SDS011;8734;59.272;17.780;2022-12-07T07:49:29;16.40;;;3.83;;
17235;SDS011;8734;59.272;17.780;2022-12-07T07:51:58;9.87;;;3.60;;
17235;SDS011;8734;59.272;17.780;2022-12-07T07:54:26;16.70;;;5.53;;
17235;SDS011;8734;59.272;17.780;2022-12-07T07:56:55;13.87;;;4.77;;
17235;SDS011;8734;59.272;17.780;2022-12-07T07:59:23;12.63;;;4.43;;
17235;SDS011;8734;59.272;17.780;2022-12-07T08:01:52;10.37;;;3.77;;
17235;SDS011;8734;59.272;17.780;2022-12-07T08:04:21;12.53;;;4.40;;
17235;SDS011;8734;59.272;17.780;2022-12-07T08:06:51;10.33;;;4.33;;
17235;SDS011;8734;59.272;17.780;2022-12-07T08:09:20;8.60;;;3.70;;
17235;SDS011;8734;59.272;17.780;2022-12-07T08:11:48;17.07;;;3.33;;
17235;SDS011;8734;59.272;17.780;2022-12-07T08:14:16;15.27;;;4.20;;
17235;SDS011;8734;59.272;17.780;2022-12-07T08:16:44;11.07;;;3.43;;
17235;SDS011;8734;59.272;17.780;2022-12-07T08:19:12;14.20;;;3.70;;
17235;SDS011;8734;59.272;17.780;2022-12-07T08:21:40;7.20;;;3.20;;
17235;SDS011;8734;59.272;17.780;2022-12-07T08:24:10;6.37;;;2.70;;
17235;SDS011;8734;59.272;17.780;2022-12-07T08:26:39;13.53;;;3.43;;
17235;SDS011;8734;59.272;17.780;2022-12-07T08:29:07;13.23;;;2.70;;
17235;SDS011;8734;59.272;17.780;2022-12-07T08:31:36;5.90;;;2.80;;
17235;SDS011;8734;59.272;17.780;2022-12-07T08:34:05;12.70;;;3.17;;
17235;SDS011;8734;59.272;17.780;2022-12-07T08:36:33;11.83;;;3.60;;
17235;SDS011;8734;59.272;17.780;2022-12-07T08:39:02;11.30;;;3.33;;
17235;SDS011;8734;59.272;17.780;2022-12-07T08:41:51;10.40;;;3.63;;
17235;SDS011;8734;59.272;17.780;2022-12-07T08:44:21;6.57;;;2.90;;
17235;SDS011;8734;59.272;17.780;2022-12-07T08:46:50;6.77;;;2.53;;
17235;SDS011;8734;59.272;17.780;2022-12-07T08:49:22;5.43;;;2.80;;
17235;SDS011;8734;59.272;17.780;2022-12-07T08:51:54;9.43;;;3.47;;
17235;SDS011;8734;59.272;17.780;2022-12-07T08:54:22;4.37;;;2.70;;
17235;SDS011;8734;59.272;17.780;2022-12-07T08:56:52;13.00;;;3.50;;
17235;SDS011;8734;59.272;17.780;2022-12-07T08:59:25;10.13;;;3.60;;
17235;SDS011;8734;59.272;17.780;2022-12-07T09:01:55;15.50;;;2.53;;
17235;SDS011;8734;59.272;17.780;2022-12-07T09:04:24;3.80;;;2.60;;
17235;SDS011;8734;59.272;17.780;2022-12-07T09:06:53;10.73;;;3.40;;
17235;SDS011;8734;59.272;17.780;2022-12-07T09:09:23;6.27;;;2.77;;
17235;SDS011;8734;59.272;17.780;2022-12-07T09:11:53;13.27;;;2.87;;
17235;SDS011;8734;59.272;17.780;2022-12-07T09:14:21;7.77;;;3.17;;
17235;SDS011;8734;59.272;17.780;2022-12-07T09:16:49;10.53;;;3.27;;
17235;SDS011;8734;59.272;17.780;2022-12-07T09:19:18;9.17;;;2.80;;
17235;SDS011;8734;59.272;17.780;2022-12-07T09:21:47;7.93;;;3.20;;
17235;SDS011;8734;59.272;17.780;2022-12-07T09:24:15;10.03;;;2.43;;
17235;SDS011;8734;59.272;17.780;2022-12-07T09:26:43;13.97;;;3.07;;
17235;SDS011;8734;59.272;17.780;2022-12-07T09:29:13;12.00;;;2.53;;
17235;SDS011;8734;59.272;17.780;2022-12-07T09:31:41;9.57;;;3.97;;
17235;SDS011;8734;59.272;17.780;2022-12-07T09:34:09;18.10;;;2.37;;
17235;SDS011;8734;59.272;17.780;2022-12-07T09:36:38;8.40;;;2.47;;
17235;SDS011;8734;59.272;17.780;2022-12-07T09:39:06;10.13;;;2.90;;
17235;SDS011;8734;59.272;17.780;2022-12-07T09:41:37;16.33;;;2.80;;
17235;SDS011;8734;59.272;17.780;2022-12-07T09:44:09;6.53;;;2.20;;
17235;SDS011;8734;59.272;17.780;2022-12-07T09:46:42;10.63;;;2.40;;
17235;SDS011;8734;59.272;17.780;2022-12-07T09:49:11;8.13;;;2.10;;
17235;SDS011;8734;59.272;17.780;2022-12-07T09:51:42;8.77;;;2.70;;
17235;SDS011;8734;59.272;17.780;2022-12-07T09:54:11;8.90;;;2.77;;
17235;SDS011;8734;59.272;17.780;2022-12-07T09:56:41;8.97;;;2.93;;
17235;SDS011;8734;59.272;17.780;2022-12-07T09:59:12;5.87;;;2.73;;
17235;SDS011;8734;59.272;17.780;2022-12-07T10:01:45;8.90;;;2.97;;
17235;SDS011;8734;59.272;17.780;2022-12-07T10:04:16;9.17;;;2.80;;
17235;SDS011;8734;59.272;17.780;2022-12-07T10:06:47;8.67;;;2.83;;
17235;SDS011;8734;59.272;17.780;2022-12-07T10:09:18;8.23;;;2.97;;
17235;SDS011;8734;59.272;17.780;2022-12-07T10:12:04;12.37;;;2.73;;
17235;SDS011;8734;59.272;17.780;2022-12-07T10:14:37;5.80;;;2.33;;
17235;SDS011;8734;59.272;17.780;2022-12-07T10:17:32;9.57;;;2.37;;
17235;SDS011;8734;59.272;17.780;2022-12-07T10:20:10;11.80;;;2.80;;
17235;SDS011;8734;59.272;17.780;2022-12-07T10:25:28;9.10;;;2.50;;
17235;SDS011;8734;59.272;17.780;2022-12-07T10:28:00;8.40;;;2.67;;
17235;SDS011;8734;59.272;17.780;2022-12-07T10:30:32;8.03;;;2.67;;
17235;SDS011;8734;59.272;17.780;2022-12-07T10:33:02;6.13;;;3.00;;
17235;SDS011;8734;59.272;17.780;2022-12-07T10:35:30;10.97;;;2.67;;
17235;SDS011;8734;59.272;17.780;2022-12-07T10:37:59;5.57;;;2.50;;
17235;SDS011;8734;59.272;17.780;2022-12-07T10:40:29;8.33;;;3.17;;
17235;SDS011;8734;59.272;17.780;2022-12-07T10:43:00;7.70;;;3.30;;
17235;SDS011;8734;59.272;17.780;2022-12-07T10:45:35;7.70;;;3.30;;
17235;SDS011;8734;59.272;17.780;2022-12-07T10:48:41;18.37;;;3.60;;
17235;SDS011;8734;59.272;17.780;2022-12-07T10:51:20;15.97;;;4.30;;
17235;SDS011;8734;59.272;17.780;2022-12-07T10:54:08;6.00;;;3.67;;
17235;SDS011;8734;59.272;17.780;2022-12-07T10:56:55;7.60;;;3.03;;
17235;SDS011;8734;59.272;17.780;2022-12-07T10:59:50;6.67;;;3.03;;
17235;SDS011;8734;59.272;17.780;2022-12-07T11:05:53;7.90;;;3.17;;
17235;SDS011;8734;59.272;17.780;2022-12-07T11:08:30;6.87;;;2.80;;
17235;SDS011;8734;59.272;17.780;2022-12-07T11:11:09;5.47;;;2.80;;
17235;SDS011;8734;59.272;17.780;2022-12-07T11:13:44;11.97;;;2.83;;
17235;SDS011;8734;59.272;17.780;2022-12-07T11:16:23;11.37;;;2.63;;
17235;SDS011;8734;59.272;17.780;2022-12-07T11:19:20;18.23;;;3.60;;
17235;SDS011;8734;59.272;17.780;2022-12-07T11:22:20;9.80;;;3.13;;
17235;SDS011;8734;59.272;17.780;2022-12-07T11:24:56;15.67;;;3.67;;
17235;SDS011;8734;59.272;17.780;2022-12-07T11:27:30;14.70;;;3.50;;
17235;SDS011;8734;59.272;17.780;2022-12-07T11:30:14;13.23;;;4.53;;
17235;SDS011;8734;59.272;17.780;2022-12-07T11:32:57;12.10;;;3.70;;
17235;SDS011;8734;59.272;17.780;2022-12-07T11:35:40;8.53;;;3.40;;
17235;SDS011;8734;59.272;17.780;2022-12-07T11:38:21;8.17;;;3.00;;
17235;SDS011;8734;59.272;17.780;2022-12-07T11:40:56;6.30;;;2.80;;
17235;SDS011;8734;59.272;17.780;2022-12-07T11:43:43;5.30;;;2.60;;
17235;SDS011;8734;59.272;17.780;2022-12-07T11:46:26;24.20;;;3.43;;
17235;SDS011;8734;59.272;17.780;2022-12-07T11:49:04;8.30;;;3.00;;
17235;SDS011;8734;59.272;17.780;2022-12-07T11:51:41;3.80;;;2.50;;
17235;SDS011;8734;59.272;17.780;2022-12-07T11:54:15;5.40;;;2.60;;
17235;SDS011;8734;59.272;17.780;2022-12-07T11:56:49;10.57;;;2.60;;
17235;SDS011;8734;59.272;17.780;2022-12-07T11:59:20;6.93;;;2.20;;
17235;SDS011;8734;59.272;17.780;2022-12-07T12:01:53;11.97;;;2.50;;
17235;SDS011;8734;59.272;17.780;2022-12-07T12:04:27;9.40;;;2.63;;
17235;SDS011;8734;59.272;17.780;2022-12-07T12:07:01;3.53;;;1.67;;
17235;SDS011;8734;59.272;17.780;2022-12-07T12:09:55;5.10;;;1.53;;
17235;SDS011;8734;59.272;17.780;2022-12-07T12:12:37;7.37;;;1.93;;
17235;SDS011;8734;59.272;17.780;2022-12-07T12:15:58;9.87;;;2.00;;
17235;SDS011;8734;59.272;17.780;2022-12-07T12:18:41;12.93;;;2.20;;
17235;SDS011;8734;59.272;17.780;2022-12-07T12:21:32;7.80;;;2.17;;
17235;SDS011;8734;59.272;17.780;2022-12-07T12:24:02;6.30;;;2.23;;
17235;SDS011;8734;59.272;17.780;2022-12-07T12:26:38;4.10;;;2.07;;
17235;SDS011;8734;59.272;17.780;2022-12-07T12:29:19;8.30;;;2.23;;
17235;SDS011;8734;59.272;17.780;2022-12-07T12:32:04;6.17;;;1.87;;
17235;SDS011;8734;59.272;17.780;2022-12-07T12:34:57;12.43;;;2.43;;
17235;SDS011;8734;59.272;17.780;2022-12-07T12:37:42;11.53;;;2.37;;
17235;SDS011;8734;59.272;17.780;2022-12-07T12:40:37;5.53;;;2.00;;
17235;SDS011;8734;59.272;17.780;2022-12-07T12:49:33;5.00;;;1.50;;
17235;SDS011;8734;59.272;17.780;2022-12-07T12:55:20;9.67;;;2.07;;
17235;SDS011;8734;59.272;17.780;2022-12-07T13:04:25;4.93;;;1.80;;
17235;SDS011;8734;59.272;17.780;2022-12-07T13:10:24;11.17;;;1.77;;
17235;SDS011;8734;59.272;17.780;2022-12-07T13:13:01;5.77;;;1.93;;
17235;SDS011;8734;59.272;17.780;2022-12-07T13:15:33;6.93;;;2.17;;
17235;SDS011;8734;59.272;17.780;2022-12-07T13:18:35;9.80;;;2.83;;
17235;SDS011;8734;59.272;17.780;2022-12-07T13:21:39;6.53;;;3.03;;
17235;SDS011;8734;59.272;17.780;2022-12-07T13:24:10;12.10;;;3.30;;
17235;SDS011;8734;59.272;17.780;2022-12-07T13:26:41;8.03;;;2.77;;
17235;SDS011;8734;59.272;17.780;2022-12-07T13:29:12;13.47;;;3.13;;
17235;SDS011;8734;59.272;17.780;2022-12-07T13:31:43;7.43;;;2.50;;
17235;SDS011;8734;59.272;17.780;2022-12-07T13:34:30;7.63;;;2.60;;
17235;SDS011;8734;59.272;17.780;2022-12-07T13:37:01;6.53;;;3.07;;
17235;SDS011;8734;59.272;17.780;2022-12-07T13:39:32;14.57;;;2.60;;
17235;SDS011;8734;59.272;17.780;2022-12-07T13:42:07;5.07;;;2.50;;
17235;SDS011;8734;59.272;17.780;2022-12-07T13:44:44;26.70;;;3.63;;
17235;SDS011;8734;59.272;17.780;2022-12-07T13:47:13;9.60;;;3.17;;
17235;SDS011;8734;59.272;17.780;2022-12-07T13:49:47;9.70;;;2.33;;
17235;SDS011;8734;59.272;17.780;2022-12-07T13:52:20;17.67;;;2.50;;
17235;SDS011;8734;59.272;17.780;2022-12-07T13:54:55;6.07;;;2.10;;
17235;SDS011;8734;59.272;17.780;2022-12-07T13:57:25;4.60;;;2.07;;
17235;SDS011;8734;59.272;17.780;2022-12-07T13:59:55;11.40;;;2.70;;
17235;SDS011;8734;59.272;17.780;2022-12-07T14:02:26;3.53;;;2.00;;
17235;SDS011;8734;59.272;17.780;2022-12-07T14:05:08;6.03;;;1.80;;
17235;SDS011;8734;59.272;17.780;2022-12-07T14:07:48;8.07;;;2.07;;
17235;SDS011;8734;59.272;17.780;2022-12-07T14:10:24;6.17;;;2.93;;
17235;SDS011;8734;59.272;17.780;2022-12-07T14:12:53;7.27;;;2.67;;
17235;SDS011;8734;59.272;17.780;2022-12-07T14:15:23;5.33;;;2.47;;
17235;SDS011;8734;59.272;17.780;2022-12-07T14:17:54;20.60;;;2.97;;
17235;SDS011;8734;59.272;17.780;2022-12-07T14:20:32;4.20;;;2.30;;
17235;SDS011;8734;59.272;17.780;2022-12-07T14:23:01;5.83;;;2.23;;
17235;SDS011;8734;59.272;17.780;2022-12-07T14:25:44;4.47;;;2.13;;
17235;SDS011;8734;59.272;17.780;2022-12-07T14:28:26;8.13;;;2.00;;
17235;SDS011;8734;59.272;17.780;2022-12-07T14:30:56;9.50;;;2.30;;
17235;SDS011;8734;59.272;17.780;2022-12-07T14:33:25;6.73;;;2.03;;
17235;SDS011;8734;59.272;17.780;2022-12-07T14:35:55;8.87;;;2.50;;
17235;SDS011;8734;59.272;17.780;2022-12-07T14:38:25;7.30;;;2.00;;
17235;SDS011;8734;59.272;17.780;2022-12-07T14:40:53;16.47;;;2.57;;
17235;SDS011;8734;59.272;17.780;2022-12-07T14:43:42;10.27;;;2.27;;
17235;SDS011;8734;59.272;17.780;2022-12-07T14:46:30;8.03;;;2.40;;
17235;SDS011;8734;59.272;17.780;2022-12-07T14:48:59;6.07;;;2.50;;
17235;SDS011;8734;59.272;17.780;2022-12-07T14:51:49;9.43;;;2.13;;
17235;SDS011;8734;59.272;17.780;2022-12-07T14:54:37;4.43;;;2.07;;
17235;SDS011;8734;59.272;17.780;2022-12-07T14:57:07;8.83;;;2.20;;
17235;SDS011;8734;59.272;17.780;2022-12-07T14:59:36;8.10;;;1.93;;
17235;SDS011;8734;59.272;17.780;2022-12-07T15:02:11;9.03;;;2.60;;
17235;SDS011;8734;59.272;17.780;2022-12-07T15:04:40;8.93;;;2.00;;
17235;SDS011;8734;59.272;17.780;2022-12-07T15:07:13;4.40;;;2.00;;
17235;SDS011;8734;59.272;17.780;2022-12-07T15:09:46;4.27;;;1.50;;
17235;SDS011;8734;59.272;17.780;2022-12-07T15:12:15;10.60;;;2.63;;
17235;SDS011;8734;59.272;17.780;2022-12-07T15:14:43;9.63;;;2.53;;
17235;SDS011;8734;59.272;17.780;2022-12-07T15:17:11;9.30;;;3.27;;
17235;SDS011;8734;59.272;17.780;2022-12-07T15:19:53;2.60;;;1.77;;
17235;SDS011;8734;59.272;17.780;2022-12-07T15:22:23;11.87;;;2.30;;
17235;SDS011;8734;59.272;17.780;2022-12-07T15:24:51;11.93;;;3.03;;
17235;SDS011;8734;59.272;17.780;2022-12-07T15:27:19;7.30;;;2.83;;
17235;SDS011;8734;59.272;17.780;2022-12-07T15:29:47;4.87;;;2.60;;
17235;SDS011;8734;59.272;17.780;2022-12-07T15:32:15;6.93;;;2.20;;
17235;SDS011;8734;59.272;17.780;2022-12-07T15:34:45;5.20;;;2.07;;
17235;SDS011;8734;59.272;17.780;2022-12-07T15:37:13;7.93;;;2.43;;
17235;SDS011;8734;59.272;17.780;2022-12-07T15:39:43;7.80;;;2.60;;
17235;SDS011;8734;59.272;17.780;2022-12-07T15:42:11;5.93;;;2.23;;
17235;SDS011;8734;59.272;17.780;2022-12-07T15:44:40;10.13;;;2.30;;